Time;durP1;ratioP1;P1;durP2;ratioP2;P2;SDS_P1;SDS_P2;PMS_P1;PMS_P2;Temp;Humidity;BMP_temperature;BMP_pressure;BME280_temperature;BME280_humidity;BME280_pressure;Samples;Min_cycle;Max_cycle;Signal;HPM_P1;HPM_P2
2023/08/23 00:01:46;;;;;;;9.70;5.90;;;;;;;-128.00;-1.00;-1.00;18504;292;7506232;-32
2023/08/23 00:04:11;;;;;;;8.50;5.40;;;;;;;-128.00;-1.00;-1.00;18488;292;7504783;-35
2023/08/23 00:06:38;;;;;;;9.50;7.80;;;;;;;-128.00;-1.00;-1.00;18932;292;7505277;-32
2023/08/23 00:09:04;;;;;;;6.50;5.20;;;;;;;-128.00;-1.00;-1.00;18914;292;7505189;-36
2023/08/23 00:11:30;;;;;;;6.90;5.00;;;;;;;-128.00;-1.00;-1.00;18512;292;7504675;-36
2023/08/23 00:13:56;;;;;;;5.80;5.10;;;;;;;-128.00;-1.00;-1.00;18502;292;7504097;-32
2023/08/23 00:16:22;;;;;;;8.00;5.90;;;;;;;-128.00;-1.00;-1.00;18927;292;7504659;-32
2023/08/23 00:18:51;;;;;;;5.90;5.00;;;;;;;-128.00;-1.00;-1.00;18919;292;7504614;-32
2023/08/23 00:21:17;;;;;;;11.20;6.40;;;;;;;-128.00;-1.00;-1.00;18516;292;7504516;-36
2023/08/23 00:23:43;;;;;;;9.70;6.10;;;;;;;-128.00;-1.00;-1.00;18889;294;7504961;-32
2023/08/23 00:26:11;;;;;;;10.40;5.90;;;;;;;-128.00;-1.00;-1.00;18893;317;7504456;-32
2023/08/23 00:28:38;;;;;;;8.20;4.90;;;;;;;-128.00;-1.00;-1.00;18489;292;7504517;-32
2023/08/23 00:31:04;;;;;;;6.50;5.60;;;;;;;-128.00;-1.00;-1.00;18463;294;7504531;-32
2023/08/23 00:33:29;;;;;;;6.40;5.40;;;;;;;-128.00;-1.00;-1.00;18483;293;7504424;-36
2023/08/23 00:35:56;;;;;;;9.30;5.40;;;;;;;-128.00;-1.00;-1.00;18927;292;7504667;-32
2023/08/23 01:18:19;;;;;;;3.90;3.60;;;;;;;-98.89;19.20;19902.90;19570;295;8046659;-32
2023/08/23 01:20:46;;;;;;;6.70;4.00;;;;;;;-128.00;-1.00;-1.00;18075;296;7505052;-36
2023/08/23 01:23:15;;;;;;;7.50;4.70;;;;;;;-128.00;-1.00;-1.00;18462;294;7506637;-32
2023/08/23 01:25:43;;;;;;;4.70;3.90;;;;;;;-128.00;-1.00;-1.00;18519;294;7504567;-31
2023/08/23 01:28:09;;;;;;;5.20;3.30;;;;;;;-128.00;-1.00;-1.00;18471;294;7505083;-32
2023/08/23 01:30:35;;;;;;;4.10;3.70;;;;;;;-128.00;-1.00;-1.00;18509;294;7504826;-32
2023/08/23 01:33:18;;;;;;;5.40;2.70;;;;;;;-128.00;-1.00;-1.00;18876;294;7504772;-32
2023/08/23 01:35:56;;;;;;;4.20;3.20;;;;;;;-128.00;-1.00;-1.00;18515;339;7505665;-32
2023/08/23 01:38:22;;;;;;;12.00;2.90;;;;;;;-128.00;-1.00;-1.00;18488;346;7506270;-32
2023/08/23 01:40:48;;;;;;;2.90;2.60;;;;;;;-128.00;-1.00;-1.00;18468;310;7505770;-35
2023/08/23 01:43:14;;;;;;;3.10;2.30;;;;;;;-128.00;-1.00;-1.00;18487;335;7505110;-32
2023/08/23 01:45:40;;;;;;;3.50;2.80;;;;;;;-128.00;-1.00;-1.00;18501;302;7506203;-31
2023/08/23 01:48:06;;;;;;;5.40;3.40;;;;;;;-128.00;-1.00;-1.00;18481;294;7504567;-32
2023/08/23 01:50:31;;;;;;;3.90;2.50;;;;;;;-128.00;-1.00;-1.00;18476;306;7504806;-36
2023/08/23 01:52:57;;;;;;;3.40;2.90;;;;;;;-128.00;-1.00;-1.00;18493;335;7506010;-32
2023/08/23 01:55:23;;;;;;;4.00;3.50;;;;;;;-128.00;-1.00;-1.00;18917;294;7504540;-32
2023/08/23 01:57:50;;;;;;;9.30;4.30;;;;;;;-128.00;-1.00;-1.00;18512;294;7504479;-32
2023/08/23 02:00:16;;;;;;;6.70;2.90;;;;;;;-128.00;-1.00;-1.00;18466;286;7506004;-36
2023/08/23 02:02:42;;;;;;;5.00;2.20;;;;;;;-128.00;-1.00;-1.00;18483;310;7506193;-32
2023/08/23 02:05:07;;;;;;;4.10;3.40;;;;;;;-128.00;-1.00;-1.00;18480;294;7505584;-35
2023/08/23 02:07:34;;;;;;;3.30;2.90;;;;;;;-128.00;-1.00;-1.00;18863;294;7504643;-32
2023/08/23 02:10:00;;;;;;;4.70;2.40;;;;;;;-128.00;-1.00;-1.00;18864;294;7505234;-31
2023/08/23 02:12:26;;;;;;;6.40;3.50;;;;;;;-128.00;-1.00;-1.00;18900;294;7504605;-32
2023/08/23 02:14:52;;;;;;;4.90;3.60;;;;;;;-128.00;-1.00;-1.00;18872;347;7504838;-31
2023/08/23 02:17:18;;;;;;;6.00;2.90;;;;;;;-128.00;-1.00;-1.00;18895;339;7505050;-31
2023/08/23 02:19:44;;;;;;;2.80;2.30;;;;;;;-128.00;-1.00;-1.00;18889;319;7504968;-35
2023/08/23 02:22:11;;;;;;;3.30;3.00;;;;;;;-128.00;-1.00;-1.00;18915;347;7504374;-31
2023/08/23 02:24:37;;;;;;;4.80;3.60;;;;;;;-128.00;-1.00;-1.00;18860;294;7504785;-34
2023/08/23 02:27:03;;;;;;;6.80;4.00;;;;;;;-128.00;-1.00;-1.00;18875;301;7505049;-35
2023/08/23 02:29:29;;;;;;;3.90;3.10;;;;;;;-128.00;-1.00;-1.00;18905;310;7505190;-31
2023/08/23 02:31:55;;;;;;;9.10;2.80;;;;;;;-128.00;-1.00;-1.00;18909;294;7504217;-35
2023/08/23 02:34:22;;;;;;;3.20;2.90;;;;;;;-128.00;-1.00;-1.00;18893;295;7504440;-34
2023/08/23 02:36:48;;;;;;;3.90;3.50;;;;;;;-128.00;-1.00;-1.00;18894;294;7504615;-30
2023/08/23 02:39:14;;;;;;;3.80;3.40;;;;;;;-128.00;-1.00;-1.00;18877;294;7504290;-31
2023/08/23 02:41:41;;;;;;;4.10;3.10;;;;;;;-128.00;-1.00;-1.00;18869;339;7505740;-35
2023/08/23 02:44:07;;;;;;;4.30;3.00;;;;;;;-128.00;-1.00;-1.00;18470;294;7504953;-30
2023/08/23 02:46:33;;;;;;;4.60;3.80;;;;;;;-128.00;-1.00;-1.00;18486;295;7504678;-31
2023/08/23 02:48:59;;;;;;;3.00;2.10;;;;;;;-128.00;-1.00;-1.00;18465;294;7504846;-31
2023/08/23 02:51:24;;;;;;;5.30;3.70;;;;;;;-128.00;-1.00;-1.00;18485;295;7506419;-32
2023/08/23 02:53:50;;;;;;;3.60;3.20;;;;;;;-128.00;-1.00;-1.00;18470;294;7504398;-32
2023/08/23 02:56:16;;;;;;;5.00;2.90;;;;;;;-128.00;-1.00;-1.00;18887;294;7504505;-31
2023/08/23 02:58:42;;;;;;;6.40;3.60;;;;;;;-128.00;-1.00;-1.00;18863;294;7504883;-36
2023/08/23 03:01:09;;;;;;;5.70;2.90;;;;;;;-128.00;-1.00;-1.00;18887;287;7505170;-32
2023/08/23 03:03:35;;;;;;;4.90;3.70;;;;;;;-128.00;-1.00;-1.00;18925;294;7505109;-31
2023/08/23 03:06:01;;;;;;;5.50;3.60;;;;;;;-128.00;-1.00;-1.00;18895;294;7504538;-35
2023/08/23 03:08:27;;;;;;;6.10;4.20;;;;;;;-128.00;-1.00;-1.00;18862;294;7504387;-32
2023/08/23 03:11:03;;;;;;;4.30;3.40;;;;;;;-128.00;-1.00;-1.00;18889;294;7505692;-36
2023/08/23 03:13:29;;;;;;;6.00;3.20;;;;;;;-128.00;-1.00;-1.00;18477;294;7506261;-35
2023/08/23 03:15:55;;;;;;;12.40;3.10;;;;;;;-128.00;-1.00;-1.00;18509;294;7505612;-31
2023/08/23 03:18:21;;;;;;;5.80;3.20;;;;;;;-128.00;-1.00;-1.00;18910;294;7504051;-35
2023/08/23 03:20:49;;;;;;;5.40;3.80;;;;;;;-128.00;-1.00;-1.00;18858;295;7505028;-35
2023/08/23 03:23:15;;;;;;;4.50;3.30;;;;;;;-128.00;-1.00;-1.00;18463;294;7504173;-35
2023/08/23 03:25:41;;;;;;;4.80;3.70;;;;;;;-128.00;-1.00;-1.00;18477;287;7504651;-31
2023/08/23 03:28:07;;;;;;;6.10;3.90;;;;;;;-128.00;-1.00;-1.00;18870;347;7504126;-36
2023/08/23 03:30:34;;;;;;;5.10;3.40;;;;;;;-128.00;-1.00;-1.00;18487;347;7504525;-31
2023/08/23 03:33:00;;;;;;;9.20;4.00;;;;;;;-128.00;-1.00;-1.00;18894;319;7504439;-36
2023/08/23 03:35:29;;;;;;;4.60;3.20;;;;;;;-128.00;-1.00;-1.00;18877;294;7504345;-33
2023/08/23 03:37:55;;;;;;;4.30;3.40;;;;;;;-128.00;-1.00;-1.00;18457;339;7504903;-32
2023/08/23 03:40:20;;;;;;;3.30;2.70;;;;;;;-128.00;-1.00;-1.00;18461;294;7506017;-31
2023/08/23 03:42:46;;;;;;;2.30;2.20;;;;;;;-128.00;-1.00;-1.00;18458;294;7505808;-36
2023/08/23 03:45:12;;;;;;;9.30;4.40;;;;;;;-128.00;-1.00;-1.00;18886;295;7505135;-35
2023/08/23 03:47:38;;;;;;;5.70;3.70;;;;;;;-128.00;-1.00;-1.00;18869;294;7504545;-36
2023/08/23 03:50:05;;;;;;;4.50;2.90;;;;;;;-128.00;-1.00;-1.00;18863;335;7505188;-31
2023/08/23 03:52:31;;;;;;;5.60;2.80;;;;;;;-128.00;-1.00;-1.00;18891;294;7504838;-37
2023/08/23 03:54:57;;;;;;;5.30;3.60;;;;;;;-128.00;-1.00;-1.00;18870;295;7505315;-32
2023/08/23 03:57:24;;;;;;;9.40;4.40;;;;;;;-128.00;-1.00;-1.00;18882;347;7504783;-32
2023/08/23 03:59:50;;;;;;;5.90;3.70;;;;;;;-128.00;-1.00;-1.00;18879;294;7504684;-32
2023/08/23 04:02:16;;;;;;;5.30;4.10;;;;;;;-128.00;-1.00;-1.00;18870;302;7505013;-31
2023/08/23 04:04:42;;;;;;;3.90;3.50;;;;;;;-128.00;-1.00;-1.00;18882;289;7505075;-33
2023/08/23 04:07:11;;;;;;;19.30;4.80;;;;;;;-128.00;-1.00;-1.00;18904;294;7504746;-35
2023/08/23 04:09:37;;;;;;;3.40;2.80;;;;;;;-128.00;-1.00;-1.00;18484;339;7506037;-34
2023/08/23 04:12:04;;;;;;;11.10;4.10;;;;;;;-128.00;-1.00;-1.00;18882;346;7504674;-35
2023/08/23 04:14:29;;;;;;;8.00;5.10;;;;;;;-128.00;-1.00;-1.00;18484;294;7506243;-33
2023/08/23 04:16:56;;;;;;;4.80;4.00;;;;;;;-128.00;-1.00;-1.00;18878;283;7504362;-31
2023/08/23 04:19:22;;;;;;;5.50;3.90;;;;;;;-128.00;-1.00;-1.00;18891;296;7505854;-32
2023/08/23 04:21:48;;;;;;;5.30;4.30;;;;;;;-128.00;-1.00;-1.00;18858;296;7504623;-35
2023/08/23 04:24:17;;;;;;;5.60;5.10;;;;;;;-128.00;-1.00;-1.00;18927;347;7504323;-35
2023/08/23 04:26:43;;;;;;;7.50;5.10;;;;;;;-128.00;-1.00;-1.00;18486;294;7506011;-31
2023/08/23 04:29:09;;;;;;;6.00;3.20;;;;;;;-128.00;-1.00;-1.00;18468;294;7506072;-35
2023/08/23 04:31:35;;;;;;;13.60;4.80;;;;;;;-128.00;-1.00;-1.00;18864;287;7504141;-32
2023/08/23 04:34:03;;;;;;;6.20;4.90;;;;;;;-128.00;-1.00;-1.00;18881;310;7505129;-33
2023/08/23 04:36:28;;;;;;;8.40;4.60;;;;;;;-128.00;-1.00;-1.00;18464;339;7504582;-33
2023/08/23 04:38:54;;;;;;;7.40;5.00;;;;;;;-128.00;-1.00;-1.00;18893;296;7504442;-33
2023/08/23 04:41:21;;;;;;;10.40;5.30;;;;;;;-128.00;-1.00;-1.00;18872;295;7504565;-33
2023/08/23 04:43:47;;;;;;;9.50;5.60;;;;;;;-128.00;-1.00;-1.00;18868;296;7505085;-30
2023/08/23 04:46:13;;;;;;;8.70;4.50;;;;;;;-128.00;-1.00;-1.00;18901;294;7504891;-30
2023/08/23 04:48:40;;;;;;;11.60;5.40;;;;;;;-128.00;-1.00;-1.00;18885;294;7504929;-31
2023/08/23 04:51:09;;;;;;;9.70;4.90;;;;;;;-128.00;-1.00;-1.00;18901;294;7504722;-34
2023/08/23 04:53:35;;;;;;;7.50;5.20;;;;;;;-128.00;-1.00;-1.00;18488;336;7506709;-31
2023/08/23 04:56:01;;;;;;;6.00;4.60;;;;;;;-128.00;-1.00;-1.00;18460;294;7504835;-31
2023/08/23 04:58:29;;;;;;;9.80;5.70;;;;;;;-128.00;-1.00;-1.00;18482;294;7506772;-31
2023/08/23 05:00:58;;;;;;;18.70;5.00;;;;;;;-128.00;-1.00;-1.00;18468;294;7504229;-35
2023/08/23 05:03:25;;;;;;;5.30;4.80;;;;;;;-128.00;-1.00;-1.00;18472;301;7504892;-31
2023/08/23 05:05:52;;;;;;;7.10;3.90;;;;;;;-128.00;-1.00;-1.00;18489;319;7505259;-35
2023/08/23 05:08:17;;;;;;;8.60;5.10;;;;;;;-128.00;-1.00;-1.00;18467;307;7505027;-35
2023/08/23 05:10:43;;;;;;;12.90;3.80;;;;;;;-128.00;-1.00;-1.00;18468;319;7504590;-36
2023/08/23 05:13:09;;;;;;;6.30;5.70;;;;;;;-128.00;-1.00;-1.00;18883;339;7504879;-33
2023/08/23 05:15:35;;;;;;;9.00;4.90;;;;;;;-128.00;-1.00;-1.00;18883;294;7504316;-32
2023/08/23 05:18:02;;;;;;;9.30;5.80;;;;;;;-128.00;-1.00;-1.00;18876;294;7504882;-32
2023/08/23 05:20:28;;;;;;;6.60;5.20;;;;;;;-128.00;-1.00;-1.00;18877;294;7505254;-32
2023/08/23 05:22:54;;;;;;;7.60;4.20;;;;;;;-128.00;-1.00;-1.00;18889;294;7504673;-36
2023/08/23 05:25:20;;;;;;;6.60;5.10;;;;;;;-128.00;-1.00;-1.00;18886;295;7504432;-33
2023/08/23 05:27:46;;;;;;;5.80;5.10;;;;;;;-128.00;-1.00;-1.00;18887;294;7503865;-36
2023/08/23 05:30:13;;;;;;;9.90;4.60;;;;;;;-128.00;-1.00;-1.00;18886;294;7504237;-33
2023/08/23 05:32:39;;;;;;;6.10;4.80;;;;;;;-128.00;-1.00;-1.00;18871;294;7505687;-36
2023/08/23 05:35:07;;;;;;;5.00;4.50;;;;;;;-128.00;-1.00;-1.00;18883;294;7504383;-34
2023/08/23 05:37:32;;;;;;;5.00;4.50;;;;;;;-128.00;-1.00;-1.00;18461;336;7506206;-33
2023/08/23 05:39:58;;;;;;;4.80;3.70;;;;;;;-128.00;-1.00;-1.00;18471;294;7505879;-37
2023/08/23 05:42:24;;;;;;;6.00;3.30;;;;;;;-128.00;-1.00;-1.00;18459;306;7504153;-32
2023/08/23 05:44:50;;;;;;;9.80;3.10;;;;;;;-128.00;-1.00;-1.00;18490;294;7506462;-33
2023/08/23 05:47:16;;;;;;;7.90;4.30;;;;;;;-128.00;-1.00;-1.00;18876;295;7504860;-36
2023/08/23 05:49:42;;;;;;;5.50;4.30;;;;;;;-128.00;-1.00;-1.00;18890;306;7505715;-32
2023/08/23 05:52:08;;;;;;;8.00;5.40;;;;;;;-128.00;-1.00;-1.00;18904;295;7504336;-37
2023/08/23 05:54:35;;;;;;;4.20;3.80;;;;;;;-128.00;-1.00;-1.00;18914;295;7505350;-33
2023/08/23 05:57:01;;;;;;;6.50;4.70;;;;;;;-128.00;-1.00;-1.00;18872;294;7506208;-36
2023/08/23 05:59:27;;;;;;;8.50;5.10;;;;;;;-128.00;-1.00;-1.00;18881;294;7505022;-31
2023/08/23 06:01:54;;;;;;;8.00;4.90;;;;;;;-128.00;-1.00;-1.00;18909;294;7504671;-32
2023/08/23 06:04:20;;;;;;;7.70;4.40;;;;;;;-128.00;-1.00;-1.00;18867;346;7504494;-32
2023/08/23 06:06:47;;;;;;;4.70;3.70;;;;;;;-128.00;-1.00;-1.00;18879;335;7505105;-32
2023/08/23 06:09:12;;;;;;;7.60;4.40;;;;;;;-128.00;-1.00;-1.00;18459;294;7506264;-35
2023/08/23 06:11:39;;;;;;;3.90;3.50;;;;;;;-128.00;-1.00;-1.00;18463;294;7505200;-31
2023/08/23 06:14:18;;;;;;;4.00;3.20;;;;;;;-128.00;-1.00;-1.00;18484;294;7504541;-32
2023/08/23 06:16:44;;;;;;;7.70;3.50;;;;;;;-128.00;-1.00;-1.00;18511;335;7504850;-31
2023/08/23 06:19:11;;;;;;;4.70;3.80;;;;;;;-128.00;-1.00;-1.00;18471;339;7506188;-31
2023/08/23 06:21:38;;;;;;;4.70;2.70;;;;;;;-128.00;-1.00;-1.00;18468;294;7504938;-35
2023/08/23 06:24:04;;;;;;;5.70;4.00;;;;;;;-128.00;-1.00;-1.00;18456;347;7506214;-35
2023/08/23 06:26:29;;;;;;;6.00;3.50;;;;;;;-128.00;-1.00;-1.00;18538;303;7505125;-32
2023/08/23 06:28:55;;;;;;;5.30;3.80;;;;;;;-128.00;-1.00;-1.00;18498;294;7507032;-35
2023/08/23 06:31:21;;;;;;;2.30;2.00;;;;;;;-128.00;-1.00;-1.00;18463;294;7504577;-35
2023/08/23 06:33:46;;;;;;;8.50;3.20;;;;;;;-128.00;-1.00;-1.00;18478;294;7506037;-31
2023/08/23 06:36:12;;;;;;;3.20;2.90;;;;;;;-128.00;-1.00;-1.00;18868;294;7504360;-36
2023/08/23 06:38:41;;;;;;;7.40;3.70;;;;;;;-128.00;-1.00;-1.00;18869;294;7504286;-35
2023/08/23 06:41:06;;;;;;;11.20;2.30;;;;;;;-128.00;-1.00;-1.00;18487;335;7505929;-35
2023/08/23 06:43:32;;;;;;;2.40;2.20;;;;;;;-128.00;-1.00;-1.00;18488;294;7505087;-36
2023/08/23 06:45:58;;;;;;;3.20;2.80;;;;;;;-128.00;-1.00;-1.00;18496;306;7505617;-35
2023/08/23 06:48:23;;;;;;;4.10;2.90;;;;;;;-128.00;-1.00;-1.00;18486;294;7504812;-31
2023/08/23 06:50:49;;;;;;;4.20;2.60;;;;;;;-128.00;-1.00;-1.00;18904;296;7505086;-32
2023/08/23 06:53:16;;;;;;;4.20;2.40;;;;;;;-128.00;-1.00;-1.00;18888;296;7504262;-32
2023/08/23 06:55:49;;;;;;;3.20;2.50;;;;;;;-128.00;-1.00;-1.00;18496;294;7505568;-32
2023/08/23 06:58:15;;;;;;;5.10;3.60;;;;;;;-128.00;-1.00;-1.00;18467;295;7504330;-35
2023/08/23 07:00:41;;;;;;;3.00;2.00;;;;;;;-128.00;-1.00;-1.00;18478;294;7505296;-32
2023/08/23 07:03:07;;;;;;;6.60;2.40;;;;;;;-128.00;-1.00;-1.00;18466;311;7504524;-35
2023/08/23 07:05:34;;;;;;;5.00;2.40;;;;;;;-128.00;-1.00;-1.00;18483;288;7505831;-35
2023/08/23 07:07:59;;;;;;;3.00;1.90;;;;;;;-128.00;-1.00;-1.00;18475;294;7505119;-32
2023/08/23 07:10:25;;;;;;;8.60;2.60;;;;;;;-128.00;-1.00;-1.00;18880;288;7504354;-35
2023/08/23 07:12:52;;;;;;;4.50;2.90;;;;;;;-128.00;-1.00;-1.00;18884;283;7504901;-35
2023/08/23 07:15:19;;;;;;;4.50;2.70;;;;;;;-128.00;-1.00;-1.00;18861;294;7504513;-33
2023/08/23 07:17:45;;;;;;;8.30;2.80;;;;;;;-128.00;-1.00;-1.00;18478;288;7504824;-35
2023/08/23 07:20:13;;;;;;;7.60;2.30;;;;;;;-128.00;-1.00;-1.00;18483;347;7505856;-32
2023/08/23 07:22:39;;;;;;;3.60;1.70;;;;;;;-128.00;-1.00;-1.00;18465;294;7504830;-31
2023/08/23 07:25:07;;;;;;;1.40;1.00;;;;;;;-128.00;-1.00;-1.00;18476;347;7504676;-33
2023/08/23 07:27:32;;;;;;;4.50;1.90;;;;;;;-128.00;-1.00;-1.00;18485;294;7506609;-32
2023/08/23 07:29:59;;;;;;;5.30;1.50;;;;;;;-128.00;-1.00;-1.00;18485;294;7505493;-31
2023/08/23 07:32:25;;;;;;;7.90;1.70;;;;;;;-128.00;-1.00;-1.00;18464;294;7504303;-31
2023/08/23 07:34:51;;;;;;;1.80;1.20;;;;;;;-128.00;-1.00;-1.00;18478;335;7505257;-32
2023/08/23 07:37:17;;;;;;;3.20;2.00;;;;;;;-128.00;-1.00;-1.00;18845;294;7504542;-36
2023/08/23 07:39:43;;;;;;;7.10;2.20;;;;;;;-128.00;-1.00;-1.00;18907;295;7505983;-32
2023/08/23 07:42:10;;;;;;;1.50;1.10;;;;;;;-128.00;-1.00;-1.00;18883;294;7505032;-32
2023/08/23 07:44:36;;;;;;;5.10;1.90;;;;;;;-128.00;-1.00;-1.00;18891;339;7505412;-36
2023/08/23 07:47:02;;;;;;;3.20;2.00;;;;;;;-128.00;-1.00;-1.00;18905;298;7504653;-32
2023/08/23 07:49:28;;;;;;;5.60;1.30;;;;;;;-128.00;-1.00;-1.00;18897;306;7504710;-37
2023/08/23 07:51:54;;;;;;;3.80;2.00;;;;;;;-128.00;-1.00;-1.00;18915;295;7504341;-32
2023/08/23 07:54:21;;;;;;;2.60;1.80;;;;;;;-128.00;-1.00;-1.00;18886;339;7505185;-36
2023/08/23 07:56:47;;;;;;;4.40;1.60;;;;;;;-128.00;-1.00;-1.00;18850;294;7504519;-36
2023/08/23 07:59:13;;;;;;;6.70;2.00;;;;;;;-128.00;-1.00;-1.00;18860;294;7504623;-36
2023/08/23 08:01:40;;;;;;;2.90;1.40;;;;;;;-128.00;-1.00;-1.00;18883;346;7505039;-33
2023/08/23 08:04:06;;;;;;;4.20;1.80;;;;;;;-128.00;-1.00;-1.00;18885;294;7504906;-32
2023/08/23 08:06:32;;;;;;;3.50;1.70;;;;;;;-128.00;-1.00;-1.00;18870;306;7504422;-32
2023/08/23 08:09:00;;;;;;;4.30;1.50;;;;;;;-128.00;-1.00;-1.00;18490;294;7504543;-36
2023/08/23 08:11:26;;;;;;;6.00;1.40;;;;;;;-128.00;-1.00;-1.00;18473;294;7504892;-36
2023/08/23 08:13:51;;;;;;;2.20;1.00;;;;;;;-128.00;-1.00;-1.00;18466;294;7504548;-32
2023/08/23 08:16:17;;;;;;;2.20;1.30;;;;;;;-128.00;-1.00;-1.00;18476;294;7504886;-33
2023/08/23 08:18:43;;;;;;;1.80;1.20;;;;;;;-128.00;-1.00;-1.00;18885;294;7504900;-36
2023/08/23 08:21:10;;;;;;;5.20;1.60;;;;;;;-128.00;-1.00;-1.00;18894;310;7504375;-33
2023/08/23 08:23:36;;;;;;;1.20;1.00;;;;;;;-128.00;-1.00;-1.00;18467;343;7506215;-36
2023/08/23 08:26:02;;;;;;;4.20;1.50;;;;;;;-128.00;-1.00;-1.00;18870;294;7504538;-33
2023/08/23 08:28:28;;;;;;;2.20;0.90;;;;;;;-128.00;-1.00;-1.00;18470;294;7504861;-33
2023/08/23 08:30:54;;;;;;;18.30;1.60;;;;;;;-128.00;-1.00;-1.00;18469;294;7505087;-33
2023/08/23 08:33:20;;;;;;;4.60;1.70;;;;;;;-128.00;-1.00;-1.00;18505;294;7504625;-36
2023/08/23 08:35:46;;;;;;;1.80;1.10;;;;;;;-128.00;-1.00;-1.00;18887;346;7505006;-33
2023/08/23 08:38:12;;;;;;;3.50;1.50;;;;;;;-128.00;-1.00;-1.00;18478;294;7505787;-35
2023/08/23 08:40:38;;;;;;;1.10;0.90;;;;;;;-128.00;-1.00;-1.00;18474;294;7506247;-32
2023/08/23 08:43:05;;;;;;;2.00;1.40;;;;;;;-128.00;-1.00;-1.00;18462;319;7506250;-35
2023/08/23 08:45:31;;;;;;;3.90;1.40;;;;;;;-128.00;-1.00;-1.00;18471;287;7505955;-32
2023/08/23 08:47:57;;;;;;;1.80;0.90;;;;;;;-128.00;-1.00;-1.00;18502;294;7504609;-36
2023/08/23 08:50:23;;;;;;;2.50;1.00;;;;;;;-128.00;-1.00;-1.00;18473;294;7504794;-32
2023/08/23 08:52:53;;;;;;;1.40;0.80;;;;;;;-128.00;-1.00;-1.00;18464;295;7504953;-32
2023/08/23 08:55:20;;;;;;;2.60;1.00;;;;;;;-128.00;-1.00;-1.00;18505;294;7504539;-32
2023/08/23 08:57:46;;;;;;;16.10;1.30;;;;;;;-128.00;-1.00;-1.00;18486;294;7504516;-33
2023/08/23 09:00:12;;;;;;;2.00;1.00;;;;;;;-128.00;-1.00;-1.00;18505;295;7506249;-33
2023/08/23 09:02:38;;;;;;;1.30;0.80;;;;;;;-128.00;-1.00;-1.00;18489;294;7506148;-33
2023/08/23 09:05:04;;;;;;;3.70;1.00;;;;;;;-128.00;-1.00;-1.00;18454;346;7506031;-32
2023/08/23 09:07:30;;;;;;;0.90;0.40;;;;;;;-128.00;-1.00;-1.00;18472;307;7504756;-32
2023/08/23 09:09:55;;;;;;;3.80;1.10;;;;;;;-128.00;-1.00;-1.00;18474;319;7506403;-32
2023/08/23 09:12:21;;;;;;;0.60;0.50;;;;;;;-128.00;-1.00;-1.00;18467;296;7505077;-32
2023/08/23 09:14:49;;;;;;;4.00;0.70;;;;;;;-128.00;-1.00;-1.00;18872;295;7504101;-36
2023/08/23 09:17:15;;;;;;;4.10;0.90;;;;;;;-128.00;-1.00;-1.00;18476;314;7504421;-32
2023/08/23 09:19:41;;;;;;;4.20;1.80;;;;;;;-128.00;-1.00;-1.00;18502;294;7504571;-31
2023/08/23 09:22:07;;;;;;;8.00;1.30;;;;;;;-128.00;-1.00;-1.00;18023;295;7506969;-36
2023/08/23 09:24:33;;;;;;;7.70;2.50;;;;;;;-128.00;-1.00;-1.00;18456;296;7504277;-32
2023/08/23 09:27:00;;;;;;;3.30;1.00;;;;;;;-128.00;-1.00;-1.00;18489;346;7504494;-32
2023/08/23 09:29:25;;;;;;;0.80;0.60;;;;;;;-128.00;-1.00;-1.00;18485;294;7504668;-32
2023/08/23 09:31:51;;;;;;;2.60;0.80;;;;;;;-128.00;-1.00;-1.00;18482;295;7504814;-32
2023/08/23 09:34:17;;;;;;;1.50;0.60;;;;;;;-128.00;-1.00;-1.00;18903;330;7504548;-32
2023/08/23 09:36:43;;;;;;;1.40;0.90;;;;;;;-128.00;-1.00;-1.00;18906;294;7504881;-36
2023/08/23 09:39:11;;;;;;;0.40;0.40;;;;;;;-128.00;-1.00;-1.00;18474;294;7505997;-36
2023/08/23 09:41:41;;;;;;;1.80;0.60;;;;;;;-128.00;-1.00;-1.00;18459;346;7506198;-36
2023/08/23 09:44:07;;;;;;;1.20;0.90;;;;;;;-128.00;-1.00;-1.00;18475;294;7504583;-36
2023/08/23 09:46:34;;;;;;;0.60;0.50;;;;;;;-128.00;-1.00;-1.00;18501;294;7506554;-33
2023/08/23 09:49:00;;;;;;;1.60;0.50;;;;;;;-128.00;-1.00;-1.00;18475;335;7505153;-35
2023/08/23 09:51:26;;;;;;;7.50;0.90;;;;;;;-128.00;-1.00;-1.00;18508;296;7504973;-36
2023/08/23 09:53:54;;;;;;;0.80;0.40;;;;;;;-128.00;-1.00;-1.00;18904;295;7504987;-32
2023/08/23 09:56:21;;;;;;;3.30;2.10;;;;;;;-128.00;-1.00;-1.00;18498;296;7504448;-32
2023/08/23 09:58:47;;;;;;;0.90;0.80;;;;;;;-128.00;-1.00;-1.00;18501;295;7504423;-32
2023/08/23 10:01:15;;;;;;;4.50;1.00;;;;;;;-128.00;-1.00;-1.00;18481;296;7504136;-35
2023/08/23 10:03:41;;;;;;;1.50;1.00;;;;;;;-128.00;-1.00;-1.00;18460;294;7506544;-32
2023/08/23 10:06:07;;;;;;;3.70;0.70;;;;;;;-128.00;-1.00;-1.00;18513;294;7504631;-32
2023/08/23 10:08:34;;;;;;;1.30;0.60;;;;;;;-128.00;-1.00;-1.00;18481;294;7504911;-32
2023/08/23 10:10:59;;;;;;;3.50;1.00;;;;;;;-128.00;-1.00;-1.00;18475;294;7505811;-37
2023/08/23 10:13:25;;;;;;;1.70;0.70;;;;;;;-128.00;-1.00;-1.00;18894;347;7504592;-36
2023/08/23 10:15:52;;;;;;;1.90;0.70;;;;;;;-128.00;-1.00;-1.00;18898;294;7504318;-32
2023/08/23 10:18:18;;;;;;;0.90;0.50;;;;;;;-128.00;-1.00;-1.00;18485;294;7505155;-36
2023/08/23 10:20:44;;;;;;;8.10;0.80;;;;;;;-128.00;-1.00;-1.00;18474;295;7505023;-36
2023/08/23 10:23:15;;;;;;;1.40;0.60;;;;;;;-128.00;-1.00;-1.00;18466;335;7506205;-32
2023/08/23 10:25:42;;;;;;;0.50;0.50;;;;;;;-128.00;-1.00;-1.00;18483;295;7505924;-36
2023/08/23 10:28:08;;;;;;;0.50;0.50;;;;;;;-128.00;-1.00;-1.00;18486;299;7506442;-36
2023/08/23 10:30:34;;;;;;;1.40;1.20;;;;;;;-128.00;-1.00;-1.00;18458;321;7504758;-36
2023/08/23 10:33:13;;;;;;;1.30;0.60;;;;;;;-128.00;-1.00;-1.00;18503;335;7506032;-32
2023/08/23 10:35:40;;;;;;;1.10;0.70;;;;;;;-128.00;-1.00;-1.00;18500;347;7504235;-32
2023/08/23 10:38:06;;;;;;;0.60;0.50;;;;;;;-128.00;-1.00;-1.00;18486;335;7504609;-36
2023/08/23 10:40:32;;;;;;;1.20;0.70;;;;;;;-128.00;-1.00;-1.00;18465;287;7504382;-35
2023/08/23 10:42:58;;;;;;;0.80;0.80;;;;;;;-128.00;-1.00;-1.00;18464;294;7504933;-31
2023/08/23 10:45:24;;;;;;;0.70;0.50;;;;;;;-128.00;-1.00;-1.00;18483;294;7506202;-35
2023/08/23 10:47:50;;;;;;;1.10;0.80;;;;;;;-128.00;-1.00;-1.00;18473;307;7506577;-36
2023/08/23 10:50:17;;;;;;;1.10;0.70;;;;;;;-128.00;-1.00;-1.00;18492;302;7506372;-32
2023/08/23 10:52:42;;;;;;;0.40;0.40;;;;;;;-128.00;-1.00;-1.00;18504;314;7505608;-36
2023/08/23 10:55:08;;;;;;;3.10;0.80;;;;;;;-128.00;-1.00;-1.00;18493;294;7505231;-36
2023/08/23 10:57:34;;;;;;;1.00;0.70;;;;;;;-128.00;-1.00;-1.00;18874;294;7504948;-32
2023/08/23 11:00:01;;;;;;;5.80;1.30;;;;;;;-128.00;-1.00;-1.00;18893;288;7506523;-36
2023/08/23 11:02:27;;;;;;;0.90;0.80;;;;;;;-128.00;-1.00;-1.00;18485;346;7504364;-36
2023/08/23 11:04:52;;;;;;;1.70;0.70;;;;;;;-128.00;-1.00;-1.00;18452;296;7504451;-36
2023/08/23 11:07:23;;;;;;;7.10;1.20;;;;;;;-128.00;-1.00;-1.00;18887;310;7504781;-36
2023/08/23 11:09:49;;;;;;;0.50;0.50;;;;;;;-128.00;-1.00;-1.00;18478;294;7504915;-32
2023/08/23 11:12:17;;;;;;;2.10;0.50;;;;;;;-128.00;-1.00;-1.00;18872;288;7505074;-36
2023/08/23 11:14:43;;;;;;;0.90;0.40;;;;;;;-128.00;-1.00;-1.00;18507;294;7504432;-36
2023/08/23 11:17:10;;;;;;;3.10;0.60;;;;;;;-128.00;-1.00;-1.00;18491;294;7504897;-35
2023/08/23 11:19:40;;;;;;;1.80;0.50;;;;;;;-128.00;-1.00;-1.00;18456;295;7504680;-35
2023/08/23 11:22:06;;;;;;;1.10;0.60;;;;;;;-128.00;-1.00;-1.00;18463;294;7506538;-36
2023/08/23 11:24:32;;;;;;;2.50;1.00;;;;;;;-128.00;-1.00;-1.00;18481;343;7504751;-32
2023/08/23 11:26:58;;;;;;;0.60;0.50;;;;;;;-128.00;-1.00;-1.00;18478;296;7504538;-32
2023/08/23 11:29:23;;;;;;;0.90;0.50;;;;;;;-128.00;-1.00;-1.00;18489;295;7506196;-35
2023/08/23 11:31:53;;;;;;;1.50;0.50;;;;;;;-128.00;-1.00;-1.00;18466;294;7505282;-31
2023/08/23 11:34:19;;;;;;;1.20;0.50;;;;;;;-128.00;-1.00;-1.00;18502;295;7506720;-32
2023/08/23 11:36:45;;;;;;;0.50;0.40;;;;;;;-128.00;-1.00;-1.00;18471;296;7504546;-35
2023/08/23 11:39:12;;;;;;;1.20;0.60;;;;;;;-128.00;-1.00;-1.00;18464;294;7505298;-36
2023/08/23 11:41:38;;;;;;;1.20;0.50;;;;;;;-128.00;-1.00;-1.00;18480;283;7506578;-32
2023/08/23 11:44:05;;;;;;;0.30;0.20;;;;;;;-128.00;-1.00;-1.00;18455;294;7506594;-36
2023/08/23 11:46:31;;;;;;;1.70;0.80;;;;;;;-128.00;-1.00;-1.00;18454;302;7504528;-36
2023/08/23 11:48:56;;;;;;;1.30;0.50;;;;;;;-128.00;-1.00;-1.00;18468;347;7504572;-32
2023/08/23 11:51:22;;;;;;;1.30;0.50;;;;;;;-128.00;-1.00;-1.00;18481;335;7504666;-32
2023/08/23 11:53:54;;;;;;;2.20;0.80;;;;;;;-128.00;-1.00;-1.00;18465;310;7505150;-36
2023/08/23 11:56:21;;;;;;;1.10;0.60;;;;;;;-128.00;-1.00;-1.00;18486;288;7505289;-33
2023/08/23 11:58:47;;;;;;;2.00;0.50;;;;;;;-128.00;-1.00;-1.00;18491;294;7505488;-33
2023/08/23 12:01:13;;;;;;;1.20;0.90;;;;;;;-128.00;-1.00;-1.00;18498;306;7504177;-33
2023/08/23 12:03:39;;;;;;;3.20;1.00;;;;;;;-128.00;-1.00;-1.00;18465;295;7504838;-29
2023/08/23 12:06:04;;;;;;;1.40;0.60;;;;;;;-128.00;-1.00;-1.00;18494;339;7504082;-32
2023/08/23 12:08:30;;;;;;;1.40;0.40;;;;;;;-128.00;-1.00;-1.00;18494;295;7506237;-32
2023/08/23 12:10:56;;;;;;;2.00;0.80;;;;;;;-128.00;-1.00;-1.00;18469;346;7505322;-36